sensor_id;sensor_type;location;lat;lon;timestamp;P1;durP1;ratioP1;P2;durP2;ratioP2
4420;SDS011;11824;51.178;13.546;2022-10-16T00:01:42;30.20;;;16.20;;
4420;SDS011;11824;51.178;13.546;2022-10-16T00:04:11;22.17;;;13.00;;
4420;SDS011;11824;51.178;13.546;2022-10-16T00:06:41;25.20;;;14.00;;
4420;SDS011;11824;51.178;13.546;2022-10-16T00:09:10;23.37;;;14.80;;
4420;SDS011;11824;51.178;13.546;2022-10-16T00:11:39;33.17;;;15.93;;
4420;SDS011;11824;51.178;13.546;2022-10-16T00:14:37;24.03;;;14.20;;
4420;SDS011;11824;51.178;13.546;2022-10-16T00:17:07;25.53;;;14.37;;
4420;SDS011;11824;51.178;13.546;2022-10-16T00:19:35;23.93;;;14.47;;
4420;SDS011;11824;51.178;13.546;2022-10-16T00:22:06;21.20;;;13.17;;
4420;SDS011;11824;51.178;13.546;2022-10-16T00:24:34;26.17;;;14.30;;
4420;SDS011;11824;51.178;13.546;2022-10-16T00:27:03;28.53;;;14.37;;
4420;SDS011;11824;51.178;13.546;2022-10-16T00:29:32;29.33;;;18.33;;
4420;SDS011;11824;51.178;13.546;2022-10-16T00:32:01;37.37;;;24.30;;
4420;SDS011;11824;51.178;13.546;2022-10-16T00:34:30;35.27;;;20.00;;
4420;SDS011;11824;51.178;13.546;2022-10-16T00:37:00;28.67;;;17.53;;
4420;SDS011;11824;51.178;13.546;2022-10-16T00:39:54;27.03;;;16.77;;
4420;SDS011;11824;51.178;13.546;2022-10-16T00:42:34;27.93;;;17.07;;
4420;SDS011;11824;51.178;13.546;2022-10-16T00:45:32;25.37;;;15.30;;
4420;SDS011;11824;51.178;13.546;2022-10-16T00:48:12;30.50;;;16.70;;
4420;SDS011;11824;51.178;13.546;2022-10-16T00:50:50;26.87;;;17.10;;
4420;SDS011;11824;51.178;13.546;2022-10-16T00:53:27;26.20;;;14.97;;
4420;SDS011;11824;51.178;13.546;2022-10-16T00:56:00;27.77;;;14.27;;
4420;SDS011;11824;51.178;13.546;2022-10-16T00:58:52;21.77;;;12.90;;
4420;SDS011;11824;51.178;13.546;2022-10-16T01:01:25;17.10;;;11.10;;
4420;SDS011;11824;51.178;13.546;2022-10-16T01:03:59;19.83;;;11.47;;
4420;SDS011;11824;51.178;13.546;2022-10-16T01:06:31;18.40;;;11.50;;
4420;SDS011;11824;51.178;13.546;2022-10-16T01:09:14;19.33;;;11.50;;
4420;SDS011;11824;51.178;13.546;2022-10-16T01:11:52;15.33;;;10.97;;
4420;SDS011;11824;51.178;13.546;2022-10-16T01:14:32;18.80;;;10.77;;
4420;SDS011;11824;51.178;13.546;2022-10-16T01:17:10;14.03;;;9.30;;
4420;SDS011;11824;51.178;13.546;2022-10-16T01:19:48;12.47;;;9.00;;
4420;SDS011;11824;51.178;13.546;2022-10-16T01:22:50;13.90;;;9.50;;
4420;SDS011;11824;51.178;13.546;2022-10-16T01:25:50;12.40;;;9.27;;
4420;SDS011;11824;51.178;13.546;2022-10-16T01:28:30;13.77;;;10.60;;
4420;SDS011;11824;51.178;13.546;2022-10-16T01:31:23;15.70;;;11.13;;
4420;SDS011;11824;51.178;13.546;2022-10-16T01:33:56;22.93;;;12.40;;
4420;SDS011;11824;51.178;13.546;2022-10-16T01:36:29;21.50;;;13.00;;
4420;SDS011;11824;51.178;13.546;2022-10-16T01:39:04;24.80;;;13.30;;
4420;SDS011;11824;51.178;13.546;2022-10-16T01:41:37;21.83;;;13.80;;
4420;SDS011;11824;51.178;13.546;2022-10-16T01:44:11;25.30;;;14.33;;
4420;SDS011;11824;51.178;13.546;2022-10-16T01:46:46;23.13;;;15.40;;
4420;SDS011;11824;51.178;13.546;2022-10-16T01:49:17;20.87;;;15.03;;
4420;SDS011;11824;51.178;13.546;2022-10-16T01:51:48;20.20;;;15.17;;
4420;SDS011;11824;51.178;13.546;2022-10-16T01:54:19;19.13;;;14.20;;
4420;SDS011;11824;51.178;13.546;2022-10-16T01:56:50;26.43;;;15.80;;
4420;SDS011;11824;51.178;13.546;2022-10-16T01:59:21;20.23;;;11.27;;
4420;SDS011;11824;51.178;13.546;2022-10-16T02:01:54;16.43;;;11.40;;
4420;SDS011;11824;51.178;13.546;2022-10-16T02:04:27;12.80;;;10.10;;
4420;SDS011;11824;51.178;13.546;2022-10-16T02:06:57;12.37;;;9.10;;
4420;SDS011;11824;51.178;13.546;2022-10-16T02:09:26;12.80;;;8.03;;
4420;SDS011;11824;51.178;13.546;2022-10-16T02:11:56;12.30;;;8.70;;
4420;SDS011;11824;51.178;13.546;2022-10-16T02:14:29;6.13;;;5.10;;
4420;SDS011;11824;51.178;13.546;2022-10-16T02:16:58;8.37;;;6.63;;
4420;SDS011;11824;51.178;13.546;2022-10-16T02:19:27;6.30;;;5.10;;
4420;SDS011;11824;51.178;13.546;2022-10-16T02:22:00;7.37;;;5.10;;
4420;SDS011;11824;51.178;13.546;2022-10-16T02:24:48;4.13;;;3.73;;
4420;SDS011;11824;51.178;13.546;2022-10-16T02:27:24;3.80;;;3.23;;
4420;SDS011;11824;51.178;13.546;2022-10-16T02:29:58;5.57;;;3.53;;
4420;SDS011;11824;51.178;13.546;2022-10-16T02:32:34;2.90;;;2.70;;
4420;SDS011;11824;51.178;13.546;2022-10-16T02:35:04;2.33;;;2.13;;
4420;SDS011;11824;51.178;13.546;2022-10-16T02:37:35;3.10;;;2.20;;
4420;SDS011;11824;51.178;13.546;2022-10-16T02:40:06;2.17;;;1.97;;
4420;SDS011;11824;51.178;13.546;2022-10-16T02:42:36;2.83;;;2.07;;
4420;SDS011;11824;51.178;13.546;2022-10-16T02:45:09;4.83;;;2.57;;
4420;SDS011;11824;51.178;13.546;2022-10-16T02:47:39;2.23;;;2.00;;
4420;SDS011;11824;51.178;13.546;2022-10-16T02:50:07;2.50;;;2.10;;
4420;SDS011;11824;51.178;13.546;2022-10-16T02:52:36;2.40;;;2.20;;
4420;SDS011;11824;51.178;13.546;2022-10-16T02:55:04;2.33;;;2.13;;
4420;SDS011;11824;51.178;13.546;2022-10-16T02:57:33;4.10;;;2.37;;
4420;SDS011;11824;51.178;13.546;2022-10-16T03:00:03;3.10;;;2.57;;
4420;SDS011;11824;51.178;13.546;2022-10-16T03:02:33;4.10;;;3.50;;
4420;SDS011;11824;51.178;13.546;2022-10-16T03:05:02;4.30;;;3.17;;
4420;SDS011;11824;51.178;13.546;2022-10-16T03:07:31;3.30;;;3.00;;
4420;SDS011;11824;51.178;13.546;2022-10-16T03:09:59;5.40;;;3.07;;
4420;SDS011;11824;51.178;13.546;2022-10-16T03:12:28;4.80;;;3.80;;
4420;SDS011;11824;51.178;13.546;2022-10-16T03:14:57;3.77;;;3.47;;
4420;SDS011;11824;51.178;13.546;2022-10-16T03:17:25;3.93;;;3.63;;
4420;SDS011;11824;51.178;13.546;2022-10-16T03:19:55;4.50;;;3.63;;
4420;SDS011;11824;51.178;13.546;2022-10-16T03:22:24;4.73;;;4.13;;
4420;SDS011;11824;51.178;13.546;2022-10-16T03:24:52;4.47;;;4.03;;
4420;SDS011;11824;51.178;13.546;2022-10-16T03:27:21;6.43;;;4.10;;
4420;SDS011;11824;51.178;13.546;2022-10-16T03:29:50;6.10;;;4.10;;
4420;SDS011;11824;51.178;13.546;2022-10-16T03:32:19;9.63;;;4.60;;
4420;SDS011;11824;51.178;13.546;2022-10-16T03:34:47;5.03;;;4.10;;
4420;SDS011;11824;51.178;13.546;2022-10-16T03:37:17;7.03;;;5.60;;
4420;SDS011;11824;51.178;13.546;2022-10-16T03:39:46;7.53;;;5.37;;
4420;SDS011;11824;51.178;13.546;2022-10-16T03:42:14;7.77;;;6.53;;
4420;SDS011;11824;51.178;13.546;2022-10-16T03:44:43;9.97;;;5.80;;
4420;SDS011;11824;51.178;13.546;2022-10-16T03:47:11;7.00;;;6.00;;
4420;SDS011;11824;51.178;13.546;2022-10-16T03:49:39;8.93;;;6.50;;
4420;SDS011;11824;51.178;13.546;2022-10-16T03:52:08;9.23;;;6.80;;
4420;SDS011;11824;51.178;13.546;2022-10-16T03:54:38;9.47;;;7.07;;
4420;SDS011;11824;51.178;13.546;2022-10-16T03:57:06;12.53;;;7.97;;
4420;SDS011;11824;51.178;13.546;2022-10-16T03:59:35;10.93;;;9.33;;
4420;SDS011;11824;51.178;13.546;2022-10-16T04:02:03;11.40;;;8.40;;
4420;SDS011;11824;51.178;13.546;2022-10-16T04:04:32;13.90;;;8.80;;
4420;SDS011;11824;51.178;13.546;2022-10-16T04:07:00;13.23;;;10.50;;
4420;SDS011;11824;51.178;13.546;2022-10-16T04:09:29;14.80;;;10.57;;
4420;SDS011;11824;51.178;13.546;2022-10-16T04:11:59;17.13;;;11.00;;
4420;SDS011;11824;51.178;13.546;2022-10-16T04:14:28;15.50;;;11.23;;
4420;SDS011;11824;51.178;13.546;2022-10-16T04:16:56;21.17;;;10.87;;
4420;SDS011;11824;51.178;13.546;2022-10-16T04:19:25;16.00;;;12.40;;
4420;SDS011;11824;51.178;13.546;2022-10-16T04:21:53;19.80;;;11.47;;
4420;SDS011;11824;51.178;13.546;2022-10-16T04:24:22;22.47;;;12.33;;
4420;SDS011;11824;51.178;13.546;2022-10-16T04:26:50;32.83;;;11.43;;
4420;SDS011;11824;51.178;13.546;2022-10-16T04:29:20;15.27;;;9.90;;
4420;SDS011;11824;51.178;13.546;2022-10-16T04:31:48;17.63;;;11.67;;
4420;SDS011;11824;51.178;13.546;2022-10-16T04:34:17;16.10;;;11.63;;
4420;SDS011;11824;51.178;13.546;2022-10-16T04:36:46;16.60;;;11.83;;
4420;SDS011;11824;51.178;13.546;2022-10-16T04:39:15;16.00;;;11.67;;
4420;SDS011;11824;51.178;13.546;2022-10-16T04:41:44;18.83;;;13.17;;
4420;SDS011;11824;51.178;13.546;2022-10-16T04:44:13;18.13;;;11.77;;
4420;SDS011;11824;51.178;13.546;2022-10-16T04:46:42;16.60;;;11.63;;
4420;SDS011;11824;51.178;13.546;2022-10-16T04:49:11;18.40;;;13.33;;
4420;SDS011;11824;51.178;13.546;2022-10-16T04:51:39;26.73;;;16.00;;
4420;SDS011;11824;51.178;13.546;2022-10-16T04:54:08;18.57;;;13.40;;
4420;SDS011;11824;51.178;13.546;2022-10-16T04:56:37;24.83;;;15.07;;
4420;SDS011;11824;51.178;13.546;2022-10-16T04:59:12;21.63;;;15.13;;
4420;SDS011;11824;51.178;13.546;2022-10-16T05:01:42;18.10;;;13.57;;
4420;SDS011;11824;51.178;13.546;2022-10-16T05:04:11;29.63;;;14.80;;
4420;SDS011;11824;51.178;13.546;2022-10-16T05:06:41;20.33;;;13.57;;
4420;SDS011;11824;51.178;13.546;2022-10-16T05:09:10;25.37;;;15.00;;
4420;SDS011;11824;51.178;13.546;2022-10-16T05:11:38;20.27;;;14.50;;
4420;SDS011;11824;51.178;13.546;2022-10-16T05:14:06;21.00;;;14.80;;
4420;SDS011;11824;51.178;13.546;2022-10-16T05:16:36;23.00;;;17.30;;
4420;SDS011;11824;51.178;13.546;2022-10-16T05:19:06;30.70;;;15.90;;
4420;SDS011;11824;51.178;13.546;2022-10-16T05:21:54;22.20;;;14.00;;
4420;SDS011;11824;51.178;13.546;2022-10-16T05:24:23;24.80;;;15.50;;
4420;SDS011;11824;51.178;13.546;2022-10-16T05:26:51;25.13;;;15.13;;
4420;SDS011;11824;51.178;13.546;2022-10-16T05:29:20;39.47;;;17.20;;
4420;SDS011;11824;51.178;13.546;2022-10-16T05:31:52;26.83;;;17.50;;
4420;SDS011;11824;51.178;13.546;2022-10-16T05:34:22;45.40;;;17.80;;
4420;SDS011;11824;51.178;13.546;2022-10-16T05:36:51;29.53;;;17.57;;
4420;SDS011;11824;51.178;13.546;2022-10-16T05:39:19;30.30;;;17.07;;
4420;SDS011;11824;51.178;13.546;2022-10-16T05:41:49;27.13;;;17.00;;
4420;SDS011;11824;51.178;13.546;2022-10-16T05:44:18;24.20;;;16.13;;
4420;SDS011;11824;51.178;13.546;2022-10-16T05:46:47;25.87;;;16.00;;
4420;SDS011;11824;51.178;13.546;2022-10-16T05:49:15;26.77;;;17.13;;
4420;SDS011;11824;51.178;13.546;2022-10-16T05:51:45;25.97;;;16.70;;
4420;SDS011;11824;51.178;13.546;2022-10-16T05:54:14;24.50;;;16.20;;
4420;SDS011;11824;51.178;13.546;2022-10-16T05:56:42;27.40;;;17.80;;
4420;SDS011;11824;51.178;13.546;2022-10-16T05:59:11;29.23;;;17.47;;
4420;SDS011;11824;51.178;13.546;2022-10-16T06:01:40;25.00;;;15.70;;
4420;SDS011;11824;51.178;13.546;2022-10-16T06:04:08;30.10;;;17.17;;
4420;SDS011;11824;51.178;13.546;2022-10-16T06:06:36;34.23;;;18.60;;
4420;SDS011;11824;51.178;13.546;2022-10-16T06:09:06;27.37;;;17.13;;
4420;SDS011;11824;51.178;13.546;2022-10-16T06:11:36;29.10;;;18.70;;
4420;SDS011;11824;51.178;13.546;2022-10-16T06:14:05;27.70;;;17.77;;
4420;SDS011;11824;51.178;13.546;2022-10-16T06:16:33;31.47;;;18.13;;
4420;SDS011;11824;51.178;13.546;2022-10-16T06:19:03;28.07;;;17.70;;
4420;SDS011;11824;51.178;13.546;2022-10-16T06:21:34;29.80;;;17.83;;
4420;SDS011;11824;51.178;13.546;2022-10-16T06:24:03;25.70;;;17.03;;
4420;SDS011;11824;51.178;13.546;2022-10-16T06:26:32;30.50;;;17.87;;
4420;SDS011;11824;51.178;13.546;2022-10-16T06:29:01;26.37;;;16.93;;
4420;SDS011;11824;51.178;13.546;2022-10-16T06:31:29;23.47;;;16.07;;
4420;SDS011;11824;51.178;13.546;2022-10-16T06:33:59;23.50;;;16.20;;
4420;SDS011;11824;51.178;13.546;2022-10-16T06:36:28;23.57;;;16.33;;
4420;SDS011;11824;51.178;13.546;2022-10-16T06:38:56;21.67;;;15.43;;
4420;SDS011;11824;51.178;13.546;2022-10-16T06:41:25;22.20;;;15.53;;
4420;SDS011;11824;51.178;13.546;2022-10-16T06:43:55;21.70;;;16.17;;
4420;SDS011;11824;51.178;13.546;2022-10-16T06:46:24;21.20;;;15.97;;
4420;SDS011;11824;51.178;13.546;2022-10-16T06:48:53;20.40;;;15.43;;
4420;SDS011;11824;51.178;13.546;2022-10-16T06:51:22;27.13;;;19.33;;
4420;SDS011;11824;51.178;13.546;2022-10-16T06:53:52;29.77;;;20.83;;
4420;SDS011;11824;51.178;13.546;2022-10-16T06:56:30;30.03;;;18.67;;
4420;SDS011;11824;51.178;13.546;2022-10-16T06:59:01;36.40;;;25.73;;
4420;SDS011;11824;51.178;13.546;2022-10-16T07:01:30;44.13;;;30.73;;
4420;SDS011;11824;51.178;13.546;2022-10-16T07:04:00;81.50;;;50.70;;
4420;SDS011;11824;51.178;13.546;2022-10-16T07:06:30;87.90;;;52.17;;
4420;SDS011;11824;51.178;13.546;2022-10-16T07:09:01;42.00;;;29.30;;
4420;SDS011;11824;51.178;13.546;2022-10-16T07:11:31;42.23;;;29.20;;
4420;SDS011;11824;51.178;13.546;2022-10-16T07:14:01;43.20;;;20.97;;
4420;SDS011;11824;51.178;13.546;2022-10-16T07:16:30;25.17;;;17.47;;
4420;SDS011;11824;51.178;13.546;2022-10-16T07:19:00;25.40;;;18.47;;
4420;SDS011;11824;51.178;13.546;2022-10-16T07:21:30;26.13;;;16.90;;
4420;SDS011;11824;51.178;13.546;2022-10-16T07:24:02;24.20;;;15.40;;
4420;SDS011;11824;51.178;13.546;2022-10-16T07:26:33;21.63;;;14.43;;
4420;SDS011;11824;51.178;13.546;2022-10-16T07:29:04;15.17;;;12.37;;
4420;SDS011;11824;51.178;13.546;2022-10-16T07:31:34;13.20;;;9.00;;
4420;SDS011;11824;51.178;13.546;2022-10-16T07:34:04;12.07;;;9.07;;
4420;SDS011;11824;51.178;13.546;2022-10-16T07:36:32;11.67;;;8.27;;
4420;SDS011;11824;51.178;13.546;2022-10-16T07:39:01;11.17;;;7.93;;
4420;SDS011;11824;51.178;13.546;2022-10-16T07:41:30;9.07;;;6.90;;
4420;SDS011;11824;51.178;13.546;2022-10-16T07:44:04;8.93;;;7.27;;
4420;SDS011;11824;51.178;13.546;2022-10-16T07:46:32;15.13;;;6.10;;
4420;SDS011;11824;51.178;13.546;2022-10-16T07:49:02;6.97;;;5.37;;
4420;SDS011;11824;51.178;13.546;2022-10-16T07:51:31;9.57;;;4.93;;
4420;SDS011;11824;51.178;13.546;2022-10-16T07:53:59;6.27;;;5.23;;
4420;SDS011;11824;51.178;13.546;2022-10-16T07:56:30;16.80;;;5.40;;
4420;SDS011;11824;51.178;13.546;2022-10-16T07:58:59;3.00;;;2.70;;
4420;SDS011;11824;51.178;13.546;2022-10-16T08:01:29;1.60;;;1.50;;
4420;SDS011;11824;51.178;13.546;2022-10-16T08:03:57;12.93;;;2.60;;
4420;SDS011;11824;51.178;13.546;2022-10-16T08:06:26;4.17;;;3.17;;
4420;SDS011;11824;51.178;13.546;2022-10-16T08:08:55;4.10;;;3.73;;
4420;SDS011;11824;51.178;13.546;2022-10-16T08:11:26;7.03;;;4.43;;
4420;SDS011;11824;51.178;13.546;2022-10-16T08:13:54;3.90;;;3.60;;
4420;SDS011;11824;51.178;13.546;2022-10-16T08:16:23;4.90;;;4.50;;
4420;SDS011;11824;51.178;13.546;2022-10-16T08:18:52;5.43;;;4.13;;
4420;SDS011;11824;51.178;13.546;2022-10-16T08:21:21;4.60;;;4.07;;
4420;SDS011;11824;51.178;13.546;2022-10-16T08:23:50;5.90;;;5.03;;
4420;SDS011;11824;51.178;13.546;2022-10-16T08:26:23;7.03;;;5.03;;
4420;SDS011;11824;51.178;13.546;2022-10-16T08:28:53;6.80;;;3.60;;
4420;SDS011;11824;51.178;13.546;2022-10-16T08:31:22;5.10;;;3.67;;
4420;SDS011;11824;51.178;13.546;2022-10-16T08:33:54;5.07;;;4.17;;
4420;SDS011;11824;51.178;13.546;2022-10-16T08:36:22;4.70;;;3.37;;
4420;SDS011;11824;51.178;13.546;2022-10-16T08:38:51;5.40;;;3.30;;
4420;SDS011;11824;51.178;13.546;2022-10-16T08:41:23;3.50;;;3.20;;
4420;SDS011;11824;51.178;13.546;2022-10-16T08:44:04;4.23;;;3.43;;
4420;SDS011;11824;51.178;13.546;2022-10-16T08:46:55;4.90;;;3.47;;
4420;SDS011;11824;51.178;13.546;2022-10-16T08:49:31;9.03;;;3.33;;
4420;SDS011;11824;51.178;13.546;2022-10-16T08:52:00;3.40;;;3.10;;
4420;SDS011;11824;51.178;13.546;2022-10-16T08:54:29;11.67;;;9.63;;
4420;SDS011;11824;51.178;13.546;2022-10-16T08:57:06;7.13;;;3.17;;
4420;SDS011;11824;51.178;13.546;2022-10-16T08:59:38;2.80;;;2.60;;
4420;SDS011;11824;51.178;13.546;2022-10-16T09:02:13;3.50;;;2.30;;
4420;SDS011;11824;51.178;13.546;2022-10-16T09:04:57;4.63;;;1.13;;
4420;SDS011;11824;51.178;13.546;2022-10-16T09:07:46;1.10;;;1.00;;
4420;SDS011;11824;51.178;13.546;2022-10-16T09:10:22;1.80;;;1.07;;
4420;SDS011;11824;51.178;13.546;2022-10-16T09:12:58;2.00;;;1.00;;
4420;SDS011;11824;51.178;13.546;2022-10-16T09:15:39;1.60;;;1.07;;
4420;SDS011;11824;51.178;13.546;2022-10-16T09:18:12;2.90;;;1.17;;
4420;SDS011;11824;51.178;13.546;2022-10-16T09:20:51;1.47;;;1.33;;
4420;SDS011;11824;51.178;13.546;2022-10-16T09:23:25;1.80;;;1.10;;
4420;SDS011;11824;51.178;13.546;2022-10-16T09:25:55;1.57;;;0.70;;
4420;SDS011;11824;51.178;13.546;2022-10-16T09:28:25;6.37;;;0.90;;
4420;SDS011;11824;51.178;13.546;2022-10-16T09:30:54;1.00;;;1.00;;
4420;SDS011;11824;51.178;13.546;2022-10-16T09:33:23;2.10;;;0.97;;
4420;SDS011;11824;51.178;13.546;2022-10-16T09:35:58;1.73;;;1.50;;
4420;SDS011;11824;51.178;13.546;2022-10-16T09:38:30;2.60;;;1.17;;
4420;SDS011;11824;51.178;13.546;2022-10-16T09:41:00;1.47;;;0.93;;
4420;SDS011;11824;51.178;13.546;2022-10-16T09:43:32;2.50;;;0.90;;
4420;SDS011;11824;51.178;13.546;2022-10-16T09:46:06;2.40;;;1.00;;
4420;SDS011;11824;51.178;13.546;2022-10-16T09:48:49;3.23;;;1.30;;
4420;SDS011;11824;51.178;13.546;2022-10-16T09:51:21;1.33;;;1.10;;
4420;SDS011;11824;51.178;13.546;2022-10-16T09:53:54;3.07;;;1.10;;
4420;SDS011;11824;51.178;13.546;2022-10-16T09:56:25;5.00;;;1.20;;
4420;SDS011;11824;51.178;13.546;2022-10-16T09:58:55;6.40;;;3.43;;
4420;SDS011;11824;51.178;13.546;2022-10-16T10:01:27;1.73;;;1.47;;
4420;SDS011;11824;51.178;13.546;2022-10-16T10:03:59;1.70;;;1.20;;
4420;SDS011;11824;51.178;13.546;2022-10-16T10:06:31;1.10;;;0.73;;
4420;SDS011;11824;51.178;13.546;2022-10-16T10:09:05;0.93;;;0.93;;
4420;SDS011;11824;51.178;13.546;2022-10-16T10:11:44;2.63;;;1.30;;
4420;SDS011;11824;51.178;13.546;2022-10-16T10:14:17;1.87;;;1.10;;
4420;SDS011;11824;51.178;13.546;2022-10-16T10:19:50;2.87;;;1.40;;
4420;SDS011;11824;51.178;13.546;2022-10-16T10:22:26;1.70;;;1.50;;
4420;SDS011;11824;51.178;13.546;2022-10-16T10:24:57;2.43;;;1.20;;
4420;SDS011;11824;51.178;13.546;2022-10-16T10:30:47;1.40;;;1.27;;
4420;SDS011;11824;51.178;13.546;2022-10-16T10:33:28;1.43;;;1.33;;
4420;SDS011;11824;51.178;13.546;2022-10-16T10:36:07;1.20;;;1.10;;
4420;SDS011;11824;51.178;13.546;2022-10-16T10:38:58;1.17;;;0.73;;
4420;SDS011;11824;51.178;13.546;2022-10-16T10:44:30;2.70;;;1.00;;
4420;SDS011;11824;51.178;13.546;2022-10-16T10:47:08;3.93;;;1.10;;
4420;SDS011;11824;51.178;13.546;2022-10-16T10:49:48;1.53;;;1.20;;
4420;SDS011;11824;51.178;13.546;2022-10-16T10:52:29;0.97;;;0.90;;
4420;SDS011;11824;51.178;13.546;2022-10-16T10:55:12;1.50;;;1.00;;
4420;SDS011;11824;51.178;13.546;2022-10-16T10:57:52;2.80;;;1.33;;
4420;SDS011;11824;51.178;13.546;2022-10-16T11:00:33;2.53;;;1.87;;
4420;SDS011;11824;51.178;13.546;2022-10-16T11:03:13;1.47;;;1.37;;
4420;SDS011;11824;51.178;13.546;2022-10-16T11:05:55;2.30;;;1.30;;
4420;SDS011;11824;51.178;13.546;2022-10-16T11:08:26;3.63;;;1.20;;
4420;SDS011;11824;51.178;13.546;2022-10-16T11:11:03;2.07;;;1.60;;
4420;SDS011;11824;51.178;13.546;2022-10-16T11:13:37;1.43;;;1.33;;
4420;SDS011;11824;51.178;13.546;2022-10-16T11:16:11;1.00;;;0.90;;
4420;SDS011;11824;51.178;13.546;2022-10-16T11:18:48;6.70;;;1.00;;
4420;SDS011;11824;51.178;13.546;2022-10-16T11:21:20;1.87;;;1.17;;
4420;SDS011;11824;51.178;13.546;2022-10-16T11:23:57;5.90;;;1.43;;
4420;SDS011;11824;51.178;13.546;2022-10-16T11:26:30;1.43;;;1.00;;
4420;SDS011;11824;51.178;13.546;2022-10-16T11:29:03;1.23;;;1.00;;
4420;SDS011;11824;51.178;13.546;2022-10-16T11:31:38;2.17;;;1.10;;
4420;SDS011;11824;51.178;13.546;2022-10-16T11:34:12;3.20;;;1.20;;
4420;SDS011;11824;51.178;13.546;2022-10-16T11:37:04;1.70;;;1.00;;
4420;SDS011;11824;51.178;13.546;2022-10-16T11:39:38;2.63;;;1.30;;
4420;SDS011;11824;51.178;13.546;2022-10-16T11:42:10;1.67;;;1.03;;
4420;SDS011;11824;51.178;13.546;2022-10-16T11:44:45;1.97;;;1.07;;
4420;SDS011;11824;51.178;13.546;2022-10-16T11:47:24;3.03;;;1.23;;
4420;SDS011;11824;51.178;13.546;2022-10-16T11:50:20;7.20;;;1.20;;
4420;SDS011;11824;51.178;13.546;2022-10-16T11:52:55;1.43;;;1.10;;
4420;SDS011;11824;51.178;13.546;2022-10-16T11:55:32;0.70;;;0.70;;
4420;SDS011;11824;51.178;13.546;2022-10-16T11:58:13;1.13;;;1.03;;
4420;SDS011;11824;51.178;13.546;2022-10-16T12:00:51;5.07;;;1.07;;
4420;SDS011;11824;51.178;13.546;2022-10-16T12:03:25;1.00;;;1.00;;
4420;SDS011;11824;51.178;13.546;2022-10-16T12:06:11;2.00;;;1.17;;
4420;SDS011;11824;51.178;13.546;2022-10-16T12:08:49;1.07;;;0.97;;
4420;SDS011;11824;51.178;13.546;2022-10-16T12:11:22;1.03;;;0.93;;
4420;SDS011;11824;51.178;13.546;2022-10-16T12:14:07;1.13;;;0.90;;
4420;SDS011;11824;51.178;13.546;2022-10-16T12:16:50;1.30;;;1.10;;
4420;SDS011;11824;51.178;13.546;2022-10-16T12:19:21;1.90;;;1.17;;
4420;SDS011;11824;51.178;13.546;2022-10-16T12:21:50;1.10;;;1.00;;
4420;SDS011;11824;51.178;13.546;2022-10-16T12:24:22;1.10;;;1.00;;
4420;SDS011;11824;51.178;13.546;2022-10-16T12:27:03;3.40;;;2.70;;
4420;SDS011;11824;51.178;13.546;2022-10-16T12:29:35;2.40;;;2.20;;
4420;SDS011;11824;51.178;13.546;2022-10-16T12:32:05;1.40;;;1.30;;
4420;SDS011;11824;51.178;13.546;2022-10-16T12:35:17;2.80;;;1.00;;
4420;SDS011;11824;51.178;13.546;2022-10-16T12:37:47;5.03;;;1.13;;
4420;SDS011;11824;51.178;13.546;2022-10-16T12:40:24;1.13;;;1.03;;
4420;SDS011;11824;51.178;13.546;2022-10-16T12:42:55;1.10;;;0.90;;
4420;SDS011;11824;51.178;13.546;2022-10-16T12:45:27;2.77;;;1.40;;
4420;SDS011;11824;51.178;13.546;2022-10-16T12:47:57;2.40;;;2.20;;
4420;SDS011;11824;51.178;13.546;2022-10-16T12:50:30;2.17;;;1.50;;
4420;SDS011;11824;51.178;13.546;2022-10-16T12:53:01;1.47;;;1.37;;
4420;SDS011;11824;51.178;13.546;2022-10-16T12:55:33;1.70;;;1.60;;
4420;SDS011;11824;51.178;13.546;2022-10-16T12:58:21;5.07;;;3.10;;
4420;SDS011;11824;51.178;13.546;2022-10-16T13:01:03;2.00;;;1.90;;
4420;SDS011;11824;51.178;13.546;2022-10-16T13:06:34;3.37;;;1.30;;
4420;SDS011;11824;51.178;13.546;2022-10-16T13:09:37;2.07;;;1.80;;
4420;SDS011;11824;51.178;13.546;2022-10-16T13:12:17;10.47;;;2.43;;
4420;SDS011;11824;51.178;13.546;2022-10-16T13:15:06;2.03;;;1.70;;
4420;SDS011;11824;51.178;13.546;2022-10-16T13:17:52;1.10;;;1.00;;
4420;SDS011;11824;51.178;13.546;2022-10-16T13:20:30;4.20;;;1.20;;
4420;SDS011;11824;51.178;13.546;2022-10-16T13:23:08;2.30;;;1.50;;
4420;SDS011;11824;51.178;13.546;2022-10-16T13:25:47;4.03;;;1.77;;
4420;SDS011;11824;51.178;13.546;2022-10-16T13:28:27;2.60;;;2.00;;
4420;SDS011;11824;51.178;13.546;2022-10-16T13:30:59;2.50;;;2.30;;
4420;SDS011;11824;51.178;13.546;2022-10-16T13:33:31;3.60;;;2.03;;
4420;SDS011;11824;51.178;13.546;2022-10-16T13:36:03;2.17;;;1.40;;
4420;SDS011;11824;51.178;13.546;2022-10-16T13:38:33;1.27;;;1.17;;
4420;SDS011;11824;51.178;13.546;2022-10-16T13:41:03;1.70;;;1.53;;
4420;SDS011;11824;51.178;13.546;2022-10-16T13:43:34;3.10;;;1.40;;
4420;SDS011;11824;51.178;13.546;2022-10-16T13:46:05;1.93;;;1.30;;
4420;SDS011;11824;51.178;13.546;2022-10-16T13:48:40;3.67;;;1.33;;
4420;SDS011;11824;51.178;13.546;2022-10-16T13:51:11;3.13;;;2.30;;
4420;SDS011;11824;51.178;13.546;2022-10-16T13:53:41;3.53;;;1.57;;
4420;SDS011;11824;51.178;13.546;2022-10-16T13:56:11;5.33;;;2.10;;
4420;SDS011;11824;51.178;13.546;2022-10-16T13:58:41;1.50;;;1.40;;
4420;SDS011;11824;51.178;13.546;2022-10-16T14:01:15;1.60;;;1.50;;
4420;SDS011;11824;51.178;13.546;2022-10-16T14:03:47;2.13;;;1.53;;
4420;SDS011;11824;51.178;13.546;2022-10-16T14:06:18;1.80;;;1.70;;
4420;SDS011;11824;51.178;13.546;2022-10-16T14:08:50;3.00;;;1.67;;
4420;SDS011;11824;51.178;13.546;2022-10-16T14:11:25;2.10;;;1.90;;
4420;SDS011;11824;51.178;13.546;2022-10-16T14:13:54;1.93;;;1.13;;
4420;SDS011;11824;51.178;13.546;2022-10-16T14:16:24;1.83;;;1.33;;
4420;SDS011;11824;51.178;13.546;2022-10-16T14:18:57;2.83;;;1.20;;
4420;SDS011;11824;51.178;13.546;2022-10-16T14:21:27;2.00;;;1.77;;
4420;SDS011;11824;51.178;13.546;2022-10-16T14:23:56;4.77;;;1.90;;
4420;SDS011;11824;51.178;13.546;2022-10-16T14:26:25;1.70;;;1.60;;
4420;SDS011;11824;51.178;13.546;2022-10-16T14:29:03;1.63;;;1.47;;
4420;SDS011;11824;51.178;13.546;2022-10-16T14:31:38;2.60;;;1.47;;
4420;SDS011;11824;51.178;13.546;2022-10-16T14:36:53;2.30;;;1.50;;
4420;SDS011;11824;51.178;13.546;2022-10-16T14:39:23;5.10;;;1.70;;
4420;SDS011;11824;51.178;13.546;2022-10-16T14:41:54;3.23;;;1.67;;
4420;SDS011;11824;51.178;13.546;2022-10-16T14:44:27;1.17;;;1.03;;
4420;SDS011;11824;51.178;13.546;2022-10-16T14:46:58;1.57;;;1.37;;
4420;SDS011;11824;51.178;13.546;2022-10-16T14:49:37;6.00;;;1.60;;
4420;SDS011;11824;51.178;13.546;2022-10-16T14:52:08;4.73;;;1.37;;
4420;SDS011;11824;51.178;13.546;2022-10-16T14:54:38;1.40;;;1.30;;
4420;SDS011;11824;51.178;13.546;2022-10-16T14:57:13;2.73;;;1.07;;
4420;SDS011;11824;51.178;13.546;2022-10-16T14:59:45;2.50;;;1.43;;
4420;SDS011;11824;51.178;13.546;2022-10-16T15:02:16;2.00;;;1.50;;
4420;SDS011;11824;51.178;13.546;2022-10-16T15:04:51;3.23;;;1.60;;
4420;SDS011;11824;51.178;13.546;2022-10-16T15:07:20;3.03;;;1.40;;
4420;SDS011;11824;51.178;13.546;2022-10-16T15:09:48;2.20;;;1.70;;
4420;SDS011;11824;51.178;13.546;2022-10-16T15:12:17;4.03;;;1.73;;
4420;SDS011;11824;51.178;13.546;2022-10-16T15:14:45;3.20;;;1.20;;
4420;SDS011;11824;51.178;13.546;2022-10-16T15:17:14;2.30;;;1.60;;
4420;SDS011;11824;51.178;13.546;2022-10-16T15:19:46;1.47;;;1.30;;
4420;SDS011;11824;51.178;13.546;2022-10-16T15:22:16;1.13;;;1.03;;
4420;SDS011;11824;51.178;13.546;2022-10-16T15:24:45;1.37;;;1.23;;
4420;SDS011;11824;51.178;13.546;2022-10-16T15:27:14;1.83;;;1.33;;